| time (UTC) | temp C | wind direction | speed KPH | gust KPH | rain 1hr cm | rain 24hr cm | rain mn cm | humidity % | barometer mb |
| 20260905223013 | 12 | 270 | 6.4 | 6.4 | 0.03 | 0.03 | 0.03 | 83 | |
| 20260905222013 | 13 | 303 | 6.4 | 8.0 | 0.03 | 0.03 | 0.03 | 83 | |
| 20260905215947 | 15 | 297 | 9.7 | 9.7 | 0.00 | 0.08 | 0.08 | 70 | |
| 20260905214935 | 16 | 276 | 8.0 | 8.0 | 0.00 | 0.08 | 0.08 | 62 | |
| 20260905213934 | 17 | 294 | 12.9 | 14.5 | 0.00 | 0.08 | 0.08 | 58 | |
| 20260905211857 | 15 | 288 | 0.0 | 0.0 | 0.00 | 0.08 | 0.08 | 69 | |
| 20260905210844 | 15 | 270 | 0.0 | 0.0 | 0.00 | 0.08 | 0.08 | 68 | |
| 20260905205831 | 15 | 286 | 0.0 | 0.0 | 0.00 | 0.08 | 0.08 | 69 | |
| 20260905203805 | 15 | 306 | 3.2 | 3.2 | 0.00 | 0.08 | 0.08 | 67 | |
| 20260905202805 | 15 | 282 | 1.6 | 1.6 | 0.00 | 0.08 | 0.08 | 67 | |
| 20260905201805 | 15 | 228 | 0.0 | 0.0 | 0.00 | 0.08 | 0.08 | 66 | |
| 20260905200803 | 16 | 306 | 0.0 | 0.0 | 0.00 | 0.08 | 0.08 | 62 | |
| 20260905194747 | 16 | 306 | 6.4 | 6.4 | 0.00 | 0.08 | 0.08 | 58 | |
| 20260905193746 | 16 | 300 | 6.4 | 8.0 | 0.00 | 0.08 | 0.08 | 57 | |
| 20260905192746 | 16 | 314 | 4.8 | 4.8 | 0.00 | 0.08 | 0.08 | 59 | |
| 20260905190730 | 17 | 294 | 6.4 | 6.4 | 0.00 | 0.08 | 0.08 | 57 | |
| 20260905185730 | 16 | 276 | 4.8 | 4.8 | 0.00 | 0.08 | 0.08 | 58 | |
| 20260905184717 | 15 | 330 | 3.2 | 3.2 | 0.00 | 0.08 | 0.08 | 62 | |
| 20260905182650 | 17 | 281 | 1.6 | 1.6 | 0.00 | 0.08 | 0.08 | 56 | |
| 20260905181638 | 17 | 312 | 4.8 | 4.8 | 0.00 | 0.08 | 0.08 | 55 | |
| 20260905180637 | 17 | 282 | 4.8 | 4.8 | 0.00 | 0.08 | 0.08 | 55 | |
| 20260905174559 | 17 | 306 | 3.2 | 3.2 | 0.00 | 0.08 | 0.08 | 54 | |
| 20260905173546 | 18 | 294 | 3.2 | 3.2 | 0.00 | 0.08 | 0.08 | 53 | |
| 20260905172546 | 18 | 319 | 3.2 | 3.2 | 0.00 | 0.08 | 0.08 | 53 | |
| 20260905170519 | 18 | 296 | 3.2 | 3.2 | 0.00 | 0.08 | 0.08 | 52 | |
| 20260905165519 | 18 | 269 | 3.2 | 3.2 | 0.00 | 0.08 | 0.08 | 50 | |
| 20260905164517 | 19 | 306 | 3.2 | 3.2 | 0.00 | 0.08 | 0.08 | 49 | |
| 20260905162452 | 20 | 286 | 9.7 | 9.7 | 0.00 | 0.08 | 0.08 | 46 | |
| 20260905161450 | 20 | 290 | 6.4 | 6.4 | 0.00 | 0.08 | 0.08 | 47 | |
| 20260905160446 | 20 | 308 | 8.0 | 8.0 | 0.00 | 0.08 | 0.08 | 46 | |
| 20260905154421 | 20 | 270 | 6.4 | 6.4 | 0.00 | 0.08 | 0.08 | 45 | |
| 20260905153420 | 20 | 302 | 9.7 | 12.9 | 0.00 | 0.08 | 0.08 | 44 | |
| 20260905152409 | 20 | 297 | 6.4 | 8.0 | 0.00 | 0.08 | 0.08 | 44 | |
| 20260905150330 | 21 | 274 | 9.7 | 9.7 | 0.00 | 0.08 | 0.08 | 43 | |
| 20260905145318 | 21 | 312 | 9.7 | 12.9 | 0.00 | 0.08 | 0.08 | 43 | |
| 20260905144318 | 21 | 307 | 14.5 | 16.1 | 0.00 | 0.08 | 0.08 | 43 | |
| 20260905142251 | 21 | 278 | 9.7 | 12.9 | 0.00 | 0.08 | 0.08 | 44 | |
| 20260905141239 | 21 | 269 | 12.9 | 16.1 | 0.00 | 0.08 | 0.08 | 45 | |
| 20260905140238 | 21 | 282 | 9.7 | 9.7 | 0.00 | 0.08 | 0.08 | 45 | |
| 20260905134220 | 21 | 236 | 3.2 | 3.2 | 0.00 | 0.08 | 0.08 | 44 | |
| 20260905133207 | 21 | 299 | 12.9 | 16.1 | 0.00 | 0.08 | 0.08 | 45 | |
| 20260905132206 | 20 | 292 | 9.7 | 9.7 | 0.00 | 0.08 | 0.08 | 48 | |
| 20260905130128 | 21 | 318 | 11.3 | 12.9 | 0.00 | 0.08 | 0.08 | 44 | |
| 20260905125118 | 21 | 296 | 16.1 | 16.1 | 0.00 | 0.08 | 0.08 | 44 | |
| 20260905124107 | 21 | 265 | 11.3 | 12.9 | 0.00 | 0.08 | 0.08 | 45 | |
| 20260905122032 | 20 | 278 | 6.4 | 6.4 | 0.00 | 0.08 | 0.08 | 50 | |
| 20260905121022 | 19 | 288 | 8.0 | 9.7 | 0.00 | 0.08 | 0.08 | 54 | |
| 20260905120010 | 18 | 267 | 6.4 | 6.4 | 0.00 | 0.08 | 0.08 | 57 | |
| 20260905113934 | 19 | 232 | 8.0 | 9.7 | 0.00 | 0.08 | 0.08 | 55 | |
| 20260905112922 | 19 | 300 | 9.7 | 9.7 | 0.00 | 0.08 | 0.08 | 56 | |
| 20260905111910 | 18 | 10 | 9.7 | 9.7 | 0.00 | 0.08 | 0.08 | 59 | |
| 20260905105833 | 18 | 280 | 11.3 | 14.5 | 0.00 | 0.08 | 0.08 | 59 | |
| 20260905104822 | 18 | 308 | 4.8 | 6.4 | 0.00 | 0.08 | 0.08 | 63 | |
| 20260905103822 | 18 | 319 | 6.4 | 6.4 | 0.00 | 0.08 | 0.08 | 62 | |
| 20260905101750 | 18 | 306 | 11.3 | 12.9 | 0.00 | 0.08 | 0.08 | 64 | |
| 20260905100740 | 17 | 295 | 8.0 | 9.7 | 0.00 | 0.08 | 0.08 | 65 | |
| 20260905095729 | 17 | 319 | 8.0 | 8.0 | 0.00 | 0.08 | 0.08 | 67 | |
| 20260905093656 | 17 | 276 | 11.3 | 14.5 | 0.00 | 0.08 | 0.08 | 67 | |
| 20260905092644 | 17 | 286 | 12.9 | 14.5 | 0.00 | 0.08 | 0.08 | 68 | |
| 20260905091635 | 17 | 297 | 6.4 | 6.4 | 0.00 | 0.08 | 0.08 | 71 | |
| 20260905085600 | 17 | 282 | 16.1 | 17.7 | 0.00 | 0.08 | 0.08 | 73 | |
| 20260905084550 | 17 | 312 | 3.2 | 3.2 | 0.00 | 0.08 | 0.08 | 76 | |
| 20260905082517 | 16 | 294 | 8.0 | 8.0 | 0.00 | 0.08 | 0.08 | 76 | |
| 20260905081508 | 16 | 300 | 8.0 | 8.0 | 0.00 | 0.08 | 0.08 | 77 | |
| 20260905080456 | 16 | 300 | 3.2 | 3.2 | 0.00 | 0.08 | 0.08 | 77 | |
| 20260905074407 | 16 | 256 | 1.6 | 1.6 | 0.00 | 0.08 | 0.08 | 78 | |
| 20260905073354 | 17 | 264 | 14.5 | 16.1 | 0.00 | 0.08 | 0.08 | 75 | |
| 20260905072342 | 17 | 294 | 8.0 | 9.7 | 0.00 | 0.08 | 0.08 | 76 | |
| 20260905070311 | 16 | 314 | 3.2 | 3.2 | 0.00 | 0.08 | 0.08 | 77 | |
| 20260905065259 | 16 | 291 | 6.4 | 6.4 | 0.00 | 0.08 | 0.08 | 79 | |
| 20260905064248 | 16 | 302 | 3.2 | 3.2 | 0.00 | 0.08 | 0.08 | 80 | |
| 20260905062220 | 16 | 290 | 4.8 | 6.4 | 0.00 | 0.08 | 0.08 | 82 | |
| 20260905061211 | 16 | 324 | 14.5 | 14.5 | 0.00 | 0.08 | 0.08 | 81 | |
| 20260905060201 | 16 | 280 | 6.4 | 6.4 | 0.00 | 0.08 | 0.08 | 83 | |
| 20260905054124 | 16 | 256 | 8.0 | 8.0 | 0.00 | 0.08 | 0.08 | 81 | |
| 20260905053113 | 16 | 302 | 11.3 | 12.9 | 0.00 | 0.08 | 0.08 | 82 | |
| 20260905052101 | 16 | 285 | 12.9 | 16.1 | 0.00 | 0.08 | 0.08 | 82 | |
| 20260905050034 | 16 | 288 | 9.7 | 9.7 | 0.00 | 0.08 | 0.08 | 80 | |
| 20260905045024 | 16 | 300 | 6.4 | 8.0 | 0.00 | 0.08 | 0.08 | 77 | |
| 20260905044013 | 16 | 327 | 6.4 | 6.4 | 0.00 | 0.08 | 0.08 | 78 | |
| 20260905041940 | 16 | 282 | 8.0 | 8.0 | 0.00 | 0.08 | 0.08 | 77 | |
| 20260905040937 | 16 | 330 | 6.4 | 8.0 | 0.00 | 0.08 | 0.08 | 77 | |
| 20260905035928 | 16 | 312 | 6.4 | 6.4 | 0.00 | 0.08 | 0.08 | 77 | |
| 20260905033855 | 15 | 312 | 6.4 | 6.4 | 0.03 | 0.08 | 0.08 | 81 | |
| 20260905032831 | 15 | 238 | 4.8 | 4.8 | 0.03 | 0.08 | 0.08 | 85 | |
| 20260905031823 | 15 | 320 | 6.4 | 6.4 | 0.05 | 0.08 | 0.08 | 85 | |
| 20260905025748 | 15 | 224 | 4.8 | 6.4 | 0.08 | 0.08 | 0.08 | 87 | |
| 20260905024738 | 15 | 252 | 1.6 | 1.6 | 0.08 | 0.08 | 0.08 | 89 | |
| 20260905023726 | 15 | 60 | 1.6 | 1.6 | 0.05 | 0.05 | 0.05 | 89 | |
| 20260905021639 | 15 | 288 | 1.6 | 1.6 | 0.05 | 0.05 | 0.05 | 87 | |
| 20260905020628 | 16 | 294 | 6.4 | 6.4 | 0.03 | 0.03 | 0.03 | 79 | |
| 20260905015619 | 17 | 204 | 8.0 | 8.0 | 0.03 | 0.03 | 0.03 | 77 | |
| 20260905013546 | 18 | 330 | 9.7 | 9.7 | 0.00 | 0.00 | 0.00 | 66 | |
| 20260905012535 | 18 | 286 | 9.7 | 9.7 | 0.00 | 0.00 | 0.00 | 64 | |
| 20260905011512 | 19 | 276 | 11.3 | 14.5 | 0.00 | 0.00 | 0.00 | 63 | |
| 20260905005438 | 20 | 264 | 14.5 | 14.5 | 0.00 | 0.00 | 0.00 | 64 | |
| 20260905004428 | 20 | 290 | 8.0 | 9.7 | 0.00 | 0.00 | 0.00 | 65 | |
| 20260905003417 | 20 | 282 | 8.0 | 9.7 | 0.00 | 0.00 | 0.00 | 65 | |
| 20260905001341 | 20 | 288 | 9.7 | 12.9 | 0.00 | 0.00 | 0.00 | 66 | |
| 20260905000329 | 20 | 17 | 9.7 | 11.3 | 0.00 | 0.00 | 0.00 | 66 | |
| 20260904235322 | 21 | 262 | 8.0 | 8.0 | 0.00 | 0.00 | 0.00 | 66 | |
| 20260904233247 | 21 | 312 | 6.4 | 6.4 | 0.00 | 0.00 | 0.00 | 66 | |
| 20260904232237 | 21 | 275 | 3.2 | 3.2 | 0.00 | 0.00 | 0.00 | 65 | |
| 20260904231226 | 21 | 287 | 4.8 | 4.8 | 0.00 | 0.00 | 0.00 | 64 | |
| 20260904225150 | 22 | 290 | 6.4 | 6.4 | 0.00 | 0.00 | 0.00 | 61 | |
| 20260904224140 | 21 | 288 | 9.7 | 9.7 | 0.00 | 0.00 | 0.00 | 64 |